»·PEaware :: SWA572 KGEG-KEUG

SWA572 :: KGEG-KEUG

FLIGHT INFORMATION

Flight Status: Arrived
Operator:
Southwest Airlines
More flights by this operator :: More flights under this callsign
Pilot: Anonymous 8799 (8799)
Aircraft: BOEING 737-800
(B738)
More flights by this aircraft type
Origin: KGEG Spokane Intl
United States
Destination: KEUG Mahlon Sweet
United States
More flights between these airports :: More routes between these airports
Route: +GEG3 GANGS V448 BTG V23 ALFOR
File this flight plan on PilotEdge
Remarks:
Altitude:
(Current/Filed)
32,000ft
Speed:
(Current/Filed)
450kts
Departed: 23-Dec-18 10:33 AM
Arrived: 23-Dec-18 11:38 AM
Distance/Time
Traveled:
317nm/1:05
Distance/Time
To Go:
Arrived

Flight Plot

Page will automatically refresh every two minutes.

Flight plan parsing failed; only flown route is shown


Map Options




Map Legend


Flown Route
Filed Route
Departure Airport
Arrival Airport
Navaid (VOR, NDB)
Fix

Horizontal Profiles

Position Reports

Time Latitude Longitude Heading Altitude Ground
Speed
23-Dec-18 10:07 47.624603 -117.535371 278 2358ft 0kts
23-Dec-18 10:08 47.624603 -117.535371 278 2358ft 0kts
23-Dec-18 10:09 47.624603 -117.535371 278 2358ft 0kts
23-Dec-18 10:10 47.624603 -117.535371 278 2358ft 0kts
23-Dec-18 10:11 47.624603 -117.535371 278 2358ft 0kts
23-Dec-18 10:12 47.624603 -117.535371 278 2358ft 0kts
23-Dec-18 10:13 47.624603 -117.535371 278 2358ft 0kts
23-Dec-18 10:14 47.624603 -117.535371 278 2358ft 0kts
23-Dec-18 10:15 47.624603 -117.535371 278 2358ft 0kts
23-Dec-18 10:16 47.624603 -117.535371 278 2358ft 0kts
23-Dec-18 10:17 47.624603 -117.535371 278 2358ft 0kts
23-Dec-18 10:18 47.624601 -117.535343 278 2358ft 1kts
23-Dec-18 10:19 47.624359 -117.534563 290 2357ft 2kts
23-Dec-18 10:20 47.624389 -117.534150 223 2357ft 0kts
23-Dec-18 10:21 47.624389 -117.534150 223 2357ft 0kts
23-Dec-18 10:22 47.624389 -117.534151 223 2357ft 0kts
23-Dec-18 10:23 47.624512 -117.533987 218 2357ft 0kts
23-Dec-18 10:24 47.624512 -117.533987 218 2357ft 0kts
23-Dec-18 10:25 47.624512 -117.533987 218 2357ft 0kts
23-Dec-18 10:26 47.624512 -117.533987 218 2357ft 0kts
23-Dec-18 10:27 47.624505 -117.533995 216 2357ft 0kts
23-Dec-18 10:28 47.625598 -117.530785 46 2353ft 24kts
23-Dec-18 10:29 47.630654 -117.523211 45 2332ft 26kts
23-Dec-18 10:30 47.631925 -117.519500 133 2325ft 0kts
23-Dec-18 10:31 47.631925 -117.519500 133 2325ft 0kts
23-Dec-18 10:33 47.629782 -117.520323 223 2331ft 48kts
23-Dec-18 10:34 47.603269 -117.567205 230 4644ft 177kts
23-Dec-18 10:35 47.565209 -117.628050 219 7373ft 235kts
23-Dec-18 10:36 47.509779 -117.692337 219 10537ft 277kts
23-Dec-18 10:37 47.485987 -117.798652 277 12104ft 299kts
23-Dec-18 10:38 47.501338 -117.922272 273 14762ft 309kts
23-Dec-18 10:39 47.480137 -118.045701 252 17087ft 318kts
23-Dec-18 10:40 47.453740 -118.172418 254 19212ft 328kts
23-Dec-18 10:41 47.426734 -118.303182 253 21180ft 337kts
23-Dec-18 10:42 47.398914 -118.436867 253 23323ft 347kts
23-Dec-18 10:43 47.370115 -118.574382 253 25247ft 356kts
23-Dec-18 10:44 47.340710 -118.713618 252 27102ft 362kts
23-Dec-18 10:45 47.310786 -118.853935 253 29230ft 357kts
23-Dec-18 10:46 47.281165 -118.992100 253 31040ft 354kts
23-Dec-18 10:47 47.251547 -119.129447 253 32088ft 351kts
23-Dec-18 10:48 47.221916 -119.266077 253 32088ft 351kts
23-Dec-18 10:49 47.171066 -119.388266 234 32087ft 355kts
23-Dec-18 10:50 47.108325 -119.500666 234 32086ft 355kts
23-Dec-18 10:50 47.056297 -119.593478 234 32085ft 354kts
23-Dec-18 10:52 46.983479 -119.722661 233 32092ft 354kts
23-Dec-18 10:52 46.931389 -119.814630 233 32092ft 353kts
23-Dec-18 10:54 46.861521 -119.937568 234 32095ft 351kts
23-Dec-18 10:54 46.809727 -120.028393 234 32104ft 351kts
23-Dec-18 10:56 46.736879 -120.155668 234 32114ft 350kts
23-Dec-18 10:56 46.685065 -120.245876 234 32117ft 349kts
23-Dec-18 10:58 46.612240 -120.372208 234 32115ft 348kts
23-Dec-18 10:58 46.562604 -120.464234 243 32121ft 345kts
23-Dec-18 10:59 46.517516 -120.587069 244 32113ft 344kts
23-Dec-18 11:00 46.472440 -120.708901 244 32121ft 345kts
23-Dec-18 11:01 46.427899 -120.828365 244 32120ft 345kts
23-Dec-18 11:02 46.382336 -120.950095 244 32119ft 345kts
23-Dec-18 11:03 46.336357 -121.072364 244 32099ft 345kts
23-Dec-18 11:04 46.290561 -121.193733 244 32075ft 345kts
23-Dec-18 11:05 46.242675 -121.320323 244 32073ft 378kts
23-Dec-18 11:06 46.191123 -121.455826 244 32086ft 394kts
23-Dec-18 11:07 46.138607 -121.592964 244 32109ft 393kts
23-Dec-18 11:08 46.086362 -121.728457 244 32143ft 393kts
23-Dec-18 11:09 46.033095 -121.865883 244 32147ft 391kts
23-Dec-18 11:10 45.980025 -122.002285 244 32138ft 392kts
23-Dec-18 11:11 45.927093 -122.137741 244 32121ft 392kts
23-Dec-18 11:12 45.879287 -122.259550 244 32116ft 391kts
23-Dec-18 11:13 45.834992 -122.372057 244 32115ft 391kts
23-Dec-18 11:14 45.789520 -122.487057 244 31732ft 392kts
23-Dec-18 11:15 45.726461 -122.584228 220 30345ft 401kts
23-Dec-18 11:16 45.630509 -122.638662 204 28865ft 421kts
23-Dec-18 11:17 45.537950 -122.675233 203 27334ft 423kts
23-Dec-18 11:18 45.437881 -122.714755 203 25602ft 425kts
23-Dec-18 11:19 45.337973 -122.754161 203 23877ft 429kts
23-Dec-18 11:20 45.232261 -122.795722 203 22067ft 436kts
23-Dec-18 11:21 45.106056 -122.845049 202 19936ft 444kts
23-Dec-18 11:22 44.986012 -122.891784 201 17937ft 451kts
23-Dec-18 11:23 44.874653 -122.937876 205 16123ft 386kts
23-Dec-18 11:24 44.786251 -122.972977 200 14037ft 349kts
23-Dec-18 11:25 44.698830 -123.003653 199 12034ft 325kts
23-Dec-18 11:26 44.619402 -123.046569 215 10608ft 274kts
23-Dec-18 11:27 44.553137 -123.104109 215 8653ft 249kts
23-Dec-18 11:28 44.488036 -123.160655 215 6232ft 235kts
23-Dec-18 11:29 44.432345 -123.208944 214 3573ft 202kts
23-Dec-18 11:30 44.381513 -123.222630 184 2418ft 174kts
23-Dec-18 11:31 44.333366 -123.222192 183 2422ft 173kts
23-Dec-18 11:32 44.286708 -123.221448 183 2026ft 161kts
23-Dec-18 11:33 44.242269 -123.220719 183 2002ft 145kts
23-Dec-18 11:34 44.203162 -123.223440 171 1722ft 141kts
23-Dec-18 11:35 44.168153 -123.218829 185 1016ft 139kts
23-Dec-18 11:36 44.133721 -123.219093 179 374ft 114kts
23-Dec-18 11:37 44.120172 -123.217751 133 375ft 0kts
23-Dec-18 11:38 44.119865 -123.217284 132 375ft 14kts
23-Dec-18 11:39 44.119500 -123.214284 59 375ft 0kts
23-Dec-18 11:40 44.119500 -123.214284 59 375ft 0kts

Navigation Log

Ident Type
Flight plan parsing failed, navigation log unavailable